PWSweather.com
Personal Weather Stations
Station Observations
KILMORRI1
Goose Lake, Morris, IL 60450

Goose LakeMorris, IL 60450

Lat: 41.34, Lon: -88.3

Elevation: 523

Station Type:

www.gooselakeweather.com

High Low Average
Temperature 61.0°F16.1°C 49.9°F9.9°C 55.0°F12.8°C
Dew Point 56.4°F13.6°C 48.4°F9.1°C 52.5°F11.4°C
Winds 12.7 mph 20.4 kmh Calm Calm 5.0 mph SSW8.0 kmh SSW
Wind Gusts 18.4 mph29.6 kmh 3.5 mph5.6 kmh 8.0 mph12.9 kmh
Humidity 98% 80% 91%
Pressure 29.90 in1012.5 mb 29.80 in1009.1 mb -
Precipitation 0.03 in0.8 mm - -
Hour Temp Dew Point Humidity Winds Wind Gusts Pressure Precip Precip Rate Daily Precip Total
12:00 AM 54.7°F12.6°C 53.9°F12.2°C 97% 10.4 mph ESE16.7 kmh ESE 12.7 mph20.4 kmh 29.89 in1012.2 mb - 0.00 in0.0 mm 0.00 in0.0 mm
12:10 AM 54.8°F12.7°C 54.0°F12.2°C 97% 9.2 mph ESE14.8 kmh ESE 15.0 mph24.1 kmh 29.89 in1012.2 mb - 0.00 in0.0 mm 0.00 in0.0 mm
12:20 AM 54.8°F12.7°C 54.0°F12.2°C 97% 9.2 mph ESE14.8 kmh ESE 12.7 mph20.4 kmh 29.88 in1011.9 mb - 0.00 in0.0 mm 0.00 in0.0 mm
12:30 AM 54.5°F12.5°C 53.7°F12.1°C 97% 10.4 mph ESE16.7 kmh ESE 11.5 mph18.5 kmh 29.88 in1011.9 mb - 0.00 in0.0 mm 0.00 in0.0 mm
12:40 AM 54.3°F12.4°C 53.5°F11.9°C 97% 8.1 mph E13.0 kmh E 11.5 mph18.5 kmh 29.88 in1011.9 mb - 0.00 in0.0 mm 0.00 in0.0 mm
12:50 AM 54.1°F12.3°C 52.9°F11.6°C 96% 6.9 mph ESE11.1 kmh ESE 10.4 mph16.7 kmh 29.87 in1011.5 mb - 0.00 in0.0 mm 0.00 in0.0 mm
01:00 AM 53.7°F12.1°C 52.6°F11.4°C 96% 8.1 mph ESE13.0 kmh ESE 10.4 mph16.7 kmh 29.87 in1011.5 mb - 0.00 in0.0 mm 0.00 in0.0 mm
01:10 AM 53.5°F11.9°C 52.4°F11.3°C 96% 8.1 mph E13.0 kmh E 10.4 mph16.7 kmh 29.87 in1011.5 mb - 0.00 in0.0 mm 0.00 in0.0 mm
01:20 AM 53.3°F11.8°C 52.2°F11.2°C 96% 4.6 mph ESE7.4 kmh ESE 5.8 mph9.3 kmh 29.87 in1011.5 mb - 0.00 in0.0 mm 0.00 in0.0 mm
01:30 AM 53.0°F11.7°C 51.9°F11.1°C 96% 6.9 mph ESE11.1 kmh ESE 8.1 mph13.0 kmh 29.87 in1011.5 mb - 0.00 in0.0 mm 0.00 in0.0 mm
01:40 AM 53.0°F11.7°C 51.9°F11.1°C 96% 8.1 mph ESE13.0 kmh ESE 9.2 mph14.8 kmh 29.86 in1011.2 mb - 0.00 in0.0 mm 0.00 in0.0 mm
01:50 AM 53.1°F11.7°C 52.0°F11.1°C 96% 9.2 mph ESE14.8 kmh ESE 10.4 mph16.7 kmh 29.86 in1011.2 mb - 0.00 in0.0 mm 0.00 in0.0 mm
02:00 AM 53.1°F11.7°C 52.0°F11.1°C 96% 9.2 mph ESE14.8 kmh ESE 11.5 mph18.5 kmh 29.86 in1011.2 mb - 0.00 in0.0 mm 0.00 in0.0 mm
02:10 AM 53.1°F11.7°C 52.0°F11.1°C 96% 6.9 mph ESE11.1 kmh ESE 10.4 mph16.7 kmh 29.86 in1011.2 mb - 0.00 in0.0 mm 0.00 in0.0 mm
02:20 AM 53.3°F11.8°C 52.5°F11.4°C 97% 9.2 mph ESE14.8 kmh ESE 11.5 mph18.5 kmh 29.86 in1011.2 mb - 0.00 in0.0 mm 0.00 in0.0 mm
02:30 AM 53.4°F11.9°C 52.6°F11.4°C 97% 9.2 mph ESE14.8 kmh ESE 11.5 mph18.5 kmh 29.86 in1011.2 mb - 0.00 in0.0 mm 0.00 in0.0 mm
02:40 AM 53.5°F11.9°C 52.7°F11.5°C 97% 10.4 mph ESE16.7 kmh ESE 13.8 mph22.2 kmh 29.85 in1010.8 mb - 0.00 in0.0 mm 0.00 in0.0 mm
02:50 AM 53.6°F12.0°C 52.8°F11.6°C 97% 10.4 mph ESE16.7 kmh ESE 12.7 mph20.4 kmh 29.85 in1010.8 mb - 0.00 in0.0 mm 0.00 in0.0 mm
03:00 AM 53.7°F12.1°C 52.9°F11.6°C 97% 9.2 mph SE14.8 kmh SE 10.4 mph16.7 kmh 29.85 in1010.8 mb - 0.00 in0.0 mm 0.00 in0.0 mm
03:10 AM 53.7°F12.1°C 52.9°F11.6°C 97% 10.4 mph ESE16.7 kmh ESE 11.5 mph18.5 kmh 29.84 in1010.5 mb - 0.00 in0.0 mm 0.00 in0.0 mm
03:20 AM 53.8°F12.1°C 53.0°F11.7°C 97% 9.2 mph ESE14.8 kmh ESE 11.5 mph18.5 kmh 29.84 in1010.5 mb - 0.00 in0.0 mm 0.00 in0.0 mm
03:30 AM 53.8°F12.1°C 53.0°F11.7°C 97% 10.4 mph ESE16.7 kmh ESE 11.5 mph18.5 kmh 29.84 in1010.5 mb - 0.00 in0.0 mm 0.00 in0.0 mm
03:40 AM 53.8°F12.1°C 52.7°F11.5°C 96% 9.2 mph ESE14.8 kmh ESE 11.5 mph18.5 kmh 29.84 in1010.5 mb - 0.00 in0.0 mm 0.00 in0.0 mm
03:50 AM 53.8°F12.1°C 52.7°F11.5°C 96% 8.1 mph ESE13.0 kmh ESE 11.5 mph18.5 kmh 29.83 in1010.2 mb - 0.00 in0.0 mm 0.00 in0.0 mm
04:00 AM 53.7°F12.1°C 52.6°F11.4°C 96% 6.9 mph ESE11.1 kmh ESE 9.2 mph14.8 kmh 29.83 in1010.2 mb - 0.00 in0.0 mm 0.00 in0.0 mm
04:10 AM 53.5°F11.9°C 52.4°F11.3°C 96% 4.6 mph ESE7.4 kmh ESE 8.1 mph13.0 kmh 29.83 in1010.2 mb - 0.00 in0.0 mm 0.00 in0.0 mm
04:20 AM 53.4°F11.9°C 52.3°F11.3°C 96% 4.6 mph SE7.4 kmh SE 6.9 mph11.1 kmh 29.83 in1010.2 mb - 0.00 in0.0 mm 0.00 in0.0 mm
04:30 AM 53.5°F11.9°C 52.3°F11.3°C 96% 5.8 mph ESE9.3 kmh ESE 9.2 mph14.8 kmh 29.82 in1009.8 mb - 0.00 in0.0 mm 0.00 in0.0 mm
04:40 AM 53.5°F11.9°C 52.7°F11.5°C 97% 3.5 mph SE5.6 kmh SE 4.6 mph7.4 kmh 29.82 in1009.8 mb - 0.00 in0.0 mm 0.00 in0.0 mm
04:50 AM 53.7°F12.1°C 52.9°F11.6°C 97% 2.3 mph SE3.7 kmh SE 3.5 mph5.6 kmh 29.82 in1009.8 mb - 0.00 in0.0 mm 0.00 in0.0 mm
05:00 AM 53.8°F12.1°C 53.0°F11.7°C 97% 2.3 mph SE3.7 kmh SE 4.6 mph7.4 kmh 29.82 in1009.8 mb - 0.00 in0.0 mm 0.00 in0.0 mm
05:10 AM 53.9°F12.2°C 53.1°F11.7°C 97% 2.3 mph SE3.7 kmh SE 4.6 mph7.4 kmh 29.82 in1009.8 mb - 0.00 in0.0 mm 0.00 in0.0 mm
05:20 AM 54.0°F12.2°C 53.1°F11.7°C 97% 2.3 mph SE3.7 kmh SE 3.5 mph5.6 kmh 29.82 in1009.8 mb - 0.00 in0.0 mm 0.00 in0.0 mm
05:30 AM 54.0°F12.2°C 53.2°F11.8°C 97% 3.5 mph SE5.6 kmh SE 3.5 mph5.6 kmh 29.82 in1009.8 mb - 0.00 in0.0 mm 0.00 in0.0 mm
05:40 AM 54.0°F12.2°C 53.2°F11.8°C 97% 2.3 mph SE3.7 kmh SE 3.5 mph5.6 kmh 29.82 in1009.8 mb - 0.00 in0.0 mm 0.00 in0.0 mm
05:50 AM 54.1°F12.3°C 53.3°F11.8°C 97% 2.3 mph SE3.7 kmh SE 3.5 mph5.6 kmh 29.82 in1009.8 mb - 0.00 in0.0 mm 0.00 in0.0 mm
06:00 AM 54.0°F12.2°C 53.2°F11.8°C 97% 2.3 mph SE3.7 kmh SE 3.5 mph5.6 kmh 29.82 in1009.8 mb - 0.00 in0.0 mm 0.00 in0.0 mm
06:10 AM 54.3°F12.4°C 53.5°F11.9°C 97% 1.2 mph SE1.9 kmh SE 3.5 mph5.6 kmh 29.82 in1009.8 mb - 0.01 in0.3 mm 0.01 in0.3 mm
06:20 AM 54.4°F12.4°C 53.6°F12.0°C 97% 2.3 mph SE3.7 kmh SE 3.5 mph5.6 kmh 29.82 in1009.8 mb - 0.00 in0.0 mm 0.01 in0.3 mm
06:30 AM 54.6°F12.6°C 53.7°F12.1°C 97% 3.5 mph SE5.6 kmh SE 5.8 mph9.3 kmh 29.82 in1009.8 mb - 0.00 in0.0 mm 0.01 in0.3 mm
06:40 AM 55.1°F12.8°C 54.2°F12.3°C 97% 2.3 mph SSE3.7 kmh SSE 3.5 mph5.6 kmh 29.82 in1009.8 mb - 0.00 in0.0 mm 0.01 in0.3 mm
06:50 AM 55.3°F12.9°C 54.5°F12.5°C 97% 1.2 mph SSE1.9 kmh SSE 5.8 mph9.3 kmh 29.82 in1009.8 mb - 0.00 in0.0 mm 0.01 in0.3 mm
07:00 AM 55.7°F13.2°C 55.1°F12.8°C 98% 4.6 mph S7.4 kmh S 6.9 mph11.1 kmh 29.82 in1009.8 mb - 0.00 in0.0 mm 0.01 in0.3 mm
07:10 AM 56.1°F13.4°C 55.5°F13.1°C 98% 4.6 mph S7.4 kmh S 8.1 mph13.0 kmh 29.82 in1009.8 mb - 0.00 in0.0 mm 0.01 in0.3 mm
07:20 AM 56.2°F13.4°C 55.6°F13.1°C 98% 2.3 mph S3.7 kmh S 5.8 mph9.3 kmh 29.82 in1009.8 mb - 0.00 in0.0 mm 0.01 in0.3 mm
07:30 AM 56.2°F13.4°C 55.4°F13.0°C 97% 3.5 mph S5.6 kmh S 8.1 mph13.0 kmh 29.82 in1009.8 mb - 0.00 in0.0 mm 0.01 in0.3 mm
07:40 AM 56.1°F13.4°C 55.3°F12.9°C 97% 4.6 mph SSW7.4 kmh SSW 6.9 mph11.1 kmh 29.82 in1009.8 mb - 0.00 in0.0 mm 0.01 in0.3 mm
07:50 AM 56.2°F13.4°C 55.3°F12.9°C 97% 3.5 mph SSW5.6 kmh SSW 6.9 mph11.1 kmh 29.82 in1009.8 mb - 0.00 in0.0 mm 0.01 in0.3 mm
08:00 AM 56.2°F13.4°C 55.4°F13.0°C 97% 3.5 mph S5.6 kmh S 4.6 mph7.4 kmh 29.83 in1010.2 mb - 0.00 in0.0 mm 0.01 in0.3 mm
08:10 AM 56.4°F13.6°C 55.5°F13.1°C 97% 4.6 mph SSW7.4 kmh SSW 5.8 mph9.3 kmh 29.83 in1010.2 mb - 0.00 in0.0 mm 0.01 in0.3 mm
08:20 AM 56.5°F13.6°C 55.3°F12.9°C 96% 3.5 mph S5.6 kmh S 6.9 mph11.1 kmh 29.83 in1010.2 mb - 0.00 in0.0 mm 0.01 in0.3 mm
08:30 AM 56.5°F13.6°C 55.4°F13.0°C 96% 3.5 mph S5.6 kmh S 6.9 mph11.1 kmh 29.83 in1010.2 mb - 0.00 in0.0 mm 0.01 in0.3 mm
08:40 AM 56.5°F13.6°C 55.4°F13.0°C 96% 3.5 mph SSW5.6 kmh SSW 6.9 mph11.1 kmh 29.83 in1010.2 mb - 0.00 in0.0 mm 0.01 in0.3 mm
08:50 AM 56.5°F13.6°C 55.1°F12.8°C 95% 2.3 mph S3.7 kmh S 4.6 mph7.4 kmh 29.83 in1010.2 mb - 0.00 in0.0 mm 0.01 in0.3 mm
09:00 AM 56.6°F13.7°C 55.2°F12.9°C 95% 3.5 mph SW5.6 kmh SW 4.6 mph7.4 kmh 29.83 in1010.2 mb - 0.01 in0.3 mm 0.02 in0.5 mm
09:10 AM 56.8°F13.8°C 55.7°F13.2°C 96% 1.2 mph SW1.9 kmh SW 3.5 mph5.6 kmh 29.83 in1010.2 mb - 0.00 in0.0 mm 0.02 in0.5 mm
09:20 AM 57.3°F14.1°C 56.1°F13.4°C 96% Calm Calm 3.5 mph5.6 kmh 29.83 in1010.2 mb - 0.00 in0.0 mm 0.02 in0.5 mm
09:30 AM 57.5°F14.2°C 56.4°F13.6°C 96% 3.5 mph SSW5.6 kmh SSW 5.8 mph9.3 kmh 29.83 in1010.2 mb - 0.00 in0.0 mm 0.02 in0.5 mm
09:40 AM 57.7°F14.3°C 56.0°F13.3°C 94% 4.6 mph SSW7.4 kmh SSW 5.8 mph9.3 kmh 29.83 in1010.2 mb - 0.00 in0.0 mm 0.02 in0.5 mm
09:50 AM 57.6°F14.2°C 55.6°F13.1°C 93% 4.6 mph SSW7.4 kmh SSW 6.9 mph11.1 kmh 29.83 in1010.2 mb - 0.00 in0.0 mm 0.02 in0.5 mm
10:00 AM 58.1°F14.5°C 56.1°F13.4°C 93% 3.5 mph SW5.6 kmh SW 8.1 mph13.0 kmh 29.83 in1010.2 mb - 0.00 in0.0 mm 0.02 in0.5 mm
10:10 AM 58.6°F14.8°C 56.0°F13.3°C 91% 6.9 mph SSW11.1 kmh SSW 8.1 mph13.0 kmh 29.82 in1009.8 mb - 0.00 in0.0 mm 0.02 in0.5 mm
10:20 AM 58.7°F14.8°C 56.1°F13.4°C 91% 2.3 mph SW3.7 kmh SW 3.5 mph5.6 kmh 29.82 in1009.8 mb - 0.00 in0.0 mm 0.02 in0.5 mm
10:30 AM 58.8°F14.9°C 55.6°F13.1°C 89% 5.8 mph SW9.3 kmh SW 8.1 mph13.0 kmh 29.82 in1009.8 mb - 0.00 in0.0 mm 0.02 in0.5 mm
10:40 AM 58.2°F14.6°C 54.7°F12.6°C 88% 3.5 mph SSW5.6 kmh SSW 8.1 mph13.0 kmh 29.82 in1009.8 mb - 0.00 in0.0 mm 0.02 in0.5 mm
10:50 AM 58.4°F14.7°C 54.9°F12.7°C 88% 8.1 mph SSW13.0 kmh SSW 12.7 mph20.4 kmh 29.82 in1009.8 mb - 0.00 in0.0 mm 0.02 in0.5 mm
11:00 AM 58.8°F14.9°C 55.3°F12.9°C 88% 4.6 mph SSW7.4 kmh SSW 6.9 mph11.1 kmh 29.82 in1009.8 mb - 0.00 in0.0 mm 0.02 in0.5 mm
11:10 AM 59.0°F15.0°C 55.4°F13.0°C 88% 1.2 mph SSW1.9 kmh SSW 3.5 mph5.6 kmh 29.82 in1009.8 mb - 0.00 in0.0 mm 0.02 in0.5 mm
11:20 AM 59.3°F15.2°C 55.1°F12.8°C 86% 9.2 mph SSW14.8 kmh SSW 11.5 mph18.5 kmh 29.82 in1009.8 mb - 0.00 in0.0 mm 0.02 in0.5 mm
11:30 AM 59.3°F15.2°C 54.8°F12.7°C 85% 8.1 mph SW13.0 kmh SW 10.4 mph16.7 kmh 29.82 in1009.8 mb - 0.00 in0.0 mm 0.02 in0.5 mm
11:40 AM 59.3°F15.2°C 54.8°F12.7°C 85% 8.1 mph SW13.0 kmh SW 13.8 mph22.2 kmh 29.82 in1009.8 mb - 0.00 in0.0 mm 0.02 in0.5 mm
11:50 AM 61.0°F16.1°C 55.4°F13.0°C 82% 8.1 mph SSW13.0 kmh SSW 12.7 mph20.4 kmh 29.82 in1009.8 mb - 0.00 in0.0 mm 0.02 in0.5 mm
12:00 PM 61.0°F16.1°C 54.8°F12.7°C 80% 6.9 mph SSW11.1 kmh SSW 12.7 mph20.4 kmh 29.81 in1009.5 mb - 0.00 in0.0 mm 0.02 in0.5 mm
12:10 PM 60.2°F15.7°C 54.4°F12.4°C 81% 9.2 mph SW14.8 kmh SW 16.1 mph25.9 kmh 29.81 in1009.5 mb - 0.00 in0.0 mm 0.02 in0.5 mm
12:20 PM 60.1°F15.6°C 53.9°F12.2°C 80% 10.4 mph SSW16.7 kmh SSW 13.8 mph22.2 kmh 29.81 in1009.5 mb - 0.00 in0.0 mm 0.02 in0.5 mm
12:30 PM 59.6°F15.3°C 54.1°F12.3°C 82% 6.9 mph SSW11.1 kmh SSW 18.4 mph29.6 kmh 29.81 in1009.5 mb - 0.00 in0.0 mm 0.02 in0.5 mm
12:40 PM 58.9°F14.9°C 53.4°F11.9°C 82% 10.4 mph SW16.7 kmh SW 12.7 mph20.4 kmh 29.82 in1009.8 mb - 0.00 in0.0 mm 0.02 in0.5 mm
12:50 PM 59.3°F15.2°C 53.2°F11.8°C 80% 10.4 mph SSW16.7 kmh SSW 18.4 mph29.6 kmh 29.82 in1009.8 mb - 0.00 in0.0 mm 0.02 in0.5 mm
01:00 PM 59.0°F15.0°C 53.2°F11.8°C 81% 12.7 mph SW20.4 kmh SW 15.0 mph24.1 kmh 29.81 in1009.5 mb - 0.00 in0.0 mm 0.02 in0.5 mm
01:10 PM 59.2°F15.1°C 53.0°F11.7°C 80% 9.2 mph WSW14.8 kmh WSW 13.8 mph22.2 kmh 29.81 in1009.5 mb - 0.00 in0.0 mm 0.02 in0.5 mm
01:20 PM 59.2°F15.1°C 53.4°F11.9°C 81% 6.9 mph SW11.1 kmh SW 12.7 mph20.4 kmh 29.81 in1009.5 mb - 0.00 in0.0 mm 0.02 in0.5 mm
01:30 PM 59.1°F15.1°C 53.3°F11.8°C 81% 6.9 mph SW11.1 kmh SW 12.7 mph20.4 kmh 29.81 in1009.5 mb - 0.00 in0.0 mm 0.02 in0.5 mm
01:40 PM 59.1°F15.1°C 53.6°F12.0°C 82% 6.9 mph SW11.1 kmh SW 10.4 mph16.7 kmh 29.80 in1009.1 mb - 0.00 in0.0 mm 0.02 in0.5 mm
01:50 PM 59.3°F15.2°C 53.5°F11.9°C 81% 8.1 mph WSW13.0 kmh WSW 11.5 mph18.5 kmh 29.81 in1009.5 mb - 0.00 in0.0 mm 0.02 in0.5 mm
02:00 PM 59.0°F15.0°C 52.9°F11.6°C 80% 4.6 mph WSW7.4 kmh WSW 11.5 mph18.5 kmh 29.81 in1009.5 mb - 0.00 in0.0 mm 0.02 in0.5 mm
02:10 PM 58.8°F14.9°C 53.0°F11.7°C 81% 2.3 mph SW3.7 kmh SW 5.8 mph9.3 kmh 29.81 in1009.5 mb - 0.00 in0.0 mm 0.02 in0.5 mm
02:20 PM 58.4°F14.7°C 53.2°F11.8°C 83% 6.9 mph SW11.1 kmh SW 12.7 mph20.4 kmh 29.80 in1009.1 mb - 0.00 in0.0 mm 0.02 in0.5 mm
02:30 PM 57.8°F14.3°C 52.4°F11.3°C 82% 8.1 mph SW13.0 kmh SW 12.7 mph20.4 kmh 29.81 in1009.5 mb - 0.00 in0.0 mm 0.02 in0.5 mm
02:40 PM 57.6°F14.2°C 52.5°F11.4°C 83% 9.2 mph SW14.8 kmh SW 11.5 mph18.5 kmh 29.81 in1009.5 mb - 0.00 in0.0 mm 0.02 in0.5 mm
02:50 PM 57.5°F14.2°C 52.7°F11.5°C 84% 8.1 mph SSW13.0 kmh SSW 13.8 mph22.2 kmh 29.81 in1009.5 mb - 0.00 in0.0 mm 0.02 in0.5 mm
03:00 PM 56.8°F13.8°C 52.4°F11.3°C 85% 9.2 mph SW14.8 kmh SW 11.5 mph18.5 kmh 29.81 in1009.5 mb - 0.00 in0.0 mm 0.02 in0.5 mm
03:10 PM 57.2°F14.0°C 52.5°F11.4°C 84% 4.6 mph SW7.4 kmh SW 5.8 mph9.3 kmh 29.81 in1009.5 mb - 0.00 in0.0 mm 0.02 in0.5 mm
03:20 PM 57.0°F13.9°C 52.2°F11.2°C 84% 6.9 mph SW11.1 kmh SW 10.4 mph16.7 kmh 29.81 in1009.5 mb - 0.00 in0.0 mm 0.02 in0.5 mm
03:30 PM 56.9°F13.8°C 52.5°F11.4°C 85% 5.8 mph SW9.3 kmh SW 8.1 mph13.0 kmh 29.81 in1009.5 mb - 0.00 in0.0 mm 0.02 in0.5 mm
03:40 PM 57.0°F13.9°C 52.2°F11.2°C 84% 4.6 mph SW7.4 kmh SW 6.9 mph11.1 kmh 29.81 in1009.5 mb - 0.00 in0.0 mm 0.02 in0.5 mm
03:50 PM 57.1°F13.9°C 52.3°F11.3°C 84% 3.5 mph WSW5.6 kmh WSW 5.8 mph9.3 kmh 29.80 in1009.1 mb - 0.00 in0.0 mm 0.02 in0.5 mm
04:00 PM 57.8°F14.3°C 53.0°F11.7°C 84% 4.6 mph SW7.4 kmh SW 5.8 mph9.3 kmh 29.80 in1009.1 mb - 0.00 in0.0 mm 0.02 in0.5 mm
04:10 PM 57.7°F14.3°C 52.9°F11.6°C 84% 9.2 mph SW14.8 kmh SW 11.5 mph18.5 kmh 29.80 in1009.1 mb - 0.00 in0.0 mm 0.02 in0.5 mm
04:20 PM 57.3°F14.1°C 52.5°F11.4°C 84% 3.5 mph SW5.6 kmh SW 6.9 mph11.1 kmh 29.81 in1009.5 mb - 0.00 in0.0 mm 0.02 in0.5 mm
04:30 PM 57.0°F13.9°C 52.5°F11.4°C 85% 4.6 mph SW7.4 kmh SW 6.9 mph11.1 kmh 29.80 in1009.1 mb - 0.00 in0.0 mm 0.02 in0.5 mm
04:40 PM 57.0°F13.9°C 52.5°F11.4°C 85% 5.8 mph SW9.3 kmh SW 6.9 mph11.1 kmh 29.80 in1009.1 mb - 0.00 in0.0 mm 0.02 in0.5 mm
04:50 PM 56.9°F13.8°C 52.4°F11.3°C 85% 4.6 mph SW7.4 kmh SW 5.8 mph9.3 kmh 29.81 in1009.5 mb - 0.00 in0.0 mm 0.02 in0.5 mm
05:00 PM 56.8°F13.8°C 52.3°F11.3°C 85% 4.6 mph WSW7.4 kmh WSW 11.5 mph18.5 kmh 29.81 in1009.5 mb - 0.00 in0.0 mm 0.02 in0.5 mm
05:10 PM 56.8°F13.8°C 52.3°F11.3°C 85% 4.6 mph SW7.4 kmh SW 10.4 mph16.7 kmh 29.81 in1009.5 mb - 0.00 in0.0 mm 0.02 in0.5 mm
05:20 PM 56.6°F13.7°C 52.1°F11.2°C 85% 3.5 mph SW5.6 kmh SW 6.9 mph11.1 kmh 29.82 in1009.8 mb - 0.00 in0.0 mm 0.02 in0.5 mm
05:30 PM 56.4°F13.6°C 52.2°F11.2°C 86% 4.6 mph SW7.4 kmh SW 11.5 mph18.5 kmh 29.82 in1009.8 mb - 0.00 in0.0 mm 0.02 in0.5 mm
05:40 PM 56.2°F13.4°C 52.1°F11.2°C 86% 3.5 mph SW5.6 kmh SW 4.6 mph7.4 kmh 29.82 in1009.8 mb - 0.00 in0.0 mm 0.02 in0.5 mm
05:50 PM 56.0°F13.3°C 52.2°F11.2°C 87% 3.5 mph SW5.6 kmh SW 10.4 mph16.7 kmh 29.82 in1009.8 mb - 0.00 in0.0 mm 0.02 in0.5 mm
06:00 PM 55.8°F13.2°C 51.7°F10.9°C 86% 4.6 mph SW7.4 kmh SW 6.9 mph11.1 kmh 29.83 in1010.2 mb - 0.00 in0.0 mm 0.02 in0.5 mm
06:10 PM 55.6°F13.1°C 51.8°F11.0°C 87% 8.1 mph WSW13.0 kmh WSW 9.2 mph14.8 kmh 29.83 in1010.2 mb - 0.00 in0.0 mm 0.02 in0.5 mm
06:20 PM 55.4°F13.0°C 51.6°F10.9°C 87% 5.8 mph SW9.3 kmh SW 6.9 mph11.1 kmh 29.84 in1010.5 mb - 0.00 in0.0 mm 0.02 in0.5 mm
06:30 PM 55.1°F12.8°C 51.9°F11.1°C 89% 4.6 mph WSW7.4 kmh WSW 4.6 mph7.4 kmh 29.84 in1010.5 mb - 0.00 in0.0 mm 0.02 in0.5 mm
06:40 PM 54.6°F12.6°C 52.0°F11.1°C 91% 3.5 mph SW5.6 kmh SW 8.1 mph13.0 kmh 29.84 in1010.5 mb - 0.00 in0.0 mm 0.02 in0.5 mm
06:50 PM 54.2°F12.3°C 52.0°F11.1°C 92% 3.5 mph SW5.6 kmh SW 4.6 mph7.4 kmh 29.84 in1010.5 mb - 0.00 in0.0 mm 0.02 in0.5 mm
07:00 PM 54.0°F12.2°C 52.0°F11.1°C 93% 4.6 mph SW7.4 kmh SW 5.8 mph9.3 kmh 29.84 in1010.5 mb - 0.00 in0.0 mm 0.02 in0.5 mm
07:10 PM 53.8°F12.1°C 51.8°F11.0°C 93% 5.8 mph SW9.3 kmh SW 11.5 mph18.5 kmh 29.85 in1010.8 mb - 0.01 in0.3 mm 0.03 in0.8 mm
07:20 PM 53.6°F12.0°C 51.6°F10.9°C 93% 8.1 mph SW13.0 kmh SW 12.7 mph20.4 kmh 29.85 in1010.8 mb - 0.00 in0.0 mm 0.03 in0.8 mm
07:30 PM 53.3°F11.8°C 51.6°F10.9°C 94% 6.9 mph WSW11.1 kmh WSW 11.5 mph18.5 kmh 29.85 in1010.8 mb - 0.00 in0.0 mm 0.03 in0.8 mm
07:40 PM 53.0°F11.7°C 51.3°F10.7°C 94% 8.1 mph WSW13.0 kmh WSW 11.5 mph18.5 kmh 29.86 in1011.2 mb - 0.00 in0.0 mm 0.03 in0.8 mm
07:50 PM 52.5°F11.4°C 50.9°F10.5°C 94% 5.8 mph WSW9.3 kmh WSW 9.2 mph14.8 kmh 29.86 in1011.2 mb - 0.00 in0.0 mm 0.03 in0.8 mm
08:00 PM 52.3°F11.3°C 50.3°F10.2°C 93% 4.6 mph W7.4 kmh W 9.2 mph14.8 kmh 29.87 in1011.5 mb - 0.00 in0.0 mm 0.03 in0.8 mm
08:10 PM 52.2°F11.2°C 50.2°F10.1°C 93% 5.8 mph WSW9.3 kmh WSW 8.1 mph13.0 kmh 29.87 in1011.5 mb - 0.00 in0.0 mm 0.03 in0.8 mm
08:20 PM 52.0°F11.1°C 50.3°F10.2°C 94% 5.8 mph WSW9.3 kmh WSW 5.8 mph9.3 kmh 29.87 in1011.5 mb - 0.00 in0.0 mm 0.03 in0.8 mm
08:30 PM 52.0°F11.1°C 50.3°F10.2°C 94% 2.3 mph WSW3.7 kmh WSW 4.6 mph7.4 kmh 29.87 in1011.5 mb - 0.00 in0.0 mm 0.03 in0.8 mm
08:40 PM 51.7°F10.9°C 49.7°F9.8°C 93% 5.8 mph WSW9.3 kmh WSW 9.2 mph14.8 kmh 29.87 in1011.5 mb - 0.00 in0.0 mm 0.03 in0.8 mm
08:50 PM 51.5°F10.8°C 49.5°F9.7°C 93% 4.6 mph WSW7.4 kmh WSW 10.4 mph16.7 kmh 29.88 in1011.9 mb - 0.00 in0.0 mm 0.03 in0.8 mm
09:00 PM 51.4°F10.8°C 49.1°F9.5°C 92% 4.6 mph WSW7.4 kmh WSW 5.8 mph9.3 kmh 29.88 in1011.9 mb - 0.00 in0.0 mm 0.03 in0.8 mm
09:10 PM 51.2°F10.7°C 49.0°F9.4°C 92% 5.8 mph WSW9.3 kmh WSW 11.5 mph18.5 kmh 29.89 in1012.2 mb - 0.00 in0.0 mm 0.03 in0.8 mm
09:20 PM 51.1°F10.6°C 48.9°F9.4°C 92% 4.6 mph SW7.4 kmh SW 9.2 mph14.8 kmh 29.89 in1012.2 mb - 0.00 in0.0 mm 0.03 in0.8 mm
09:30 PM 51.1°F10.6°C 49.1°F9.5°C 93% 3.5 mph WSW5.6 kmh WSW 6.9 mph11.1 kmh 29.89 in1012.2 mb - 0.00 in0.0 mm 0.03 in0.8 mm
09:40 PM 51.0°F10.6°C 49.1°F9.5°C 93% 3.5 mph WSW5.6 kmh WSW 6.9 mph11.1 kmh 29.89 in1012.2 mb - 0.00 in0.0 mm 0.03 in0.8 mm
09:50 PM 50.9°F10.5°C 49.0°F9.4°C 93% 3.5 mph WSW5.6 kmh WSW 6.9 mph11.1 kmh 29.89 in1012.2 mb - 0.00 in0.0 mm 0.03 in0.8 mm
10:00 PM 50.9°F10.5°C 48.9°F9.4°C 93% 3.5 mph WSW5.6 kmh WSW 3.5 mph5.6 kmh 29.90 in1012.5 mb - 0.00 in0.0 mm 0.03 in0.8 mm
10:10 PM 50.8°F10.4°C 49.1°F9.5°C 94% 3.5 mph WSW5.6 kmh WSW 6.9 mph11.1 kmh 29.89 in1012.2 mb - 0.00 in0.0 mm 0.03 in0.8 mm
10:20 PM 50.6°F10.3°C 48.9°F9.4°C 94% 2.3 mph WSW3.7 kmh WSW 9.2 mph14.8 kmh 29.89 in1012.2 mb - 0.00 in0.0 mm 0.03 in0.8 mm
10:30 PM 50.5°F10.3°C 48.8°F9.3°C 94% 6.9 mph WSW11.1 kmh WSW 10.4 mph16.7 kmh 29.89 in1012.2 mb - 0.00 in0.0 mm 0.03 in0.8 mm
10:40 PM 50.3°F10.2°C 48.6°F9.2°C 94% 5.8 mph WSW9.3 kmh WSW 8.1 mph13.0 kmh 29.89 in1012.2 mb - 0.00 in0.0 mm 0.03 in0.8 mm
10:50 PM 50.2°F10.1°C 48.5°F9.2°C 94% 4.6 mph SW7.4 kmh SW 11.5 mph18.5 kmh 29.89 in1012.2 mb - 0.00 in0.0 mm 0.03 in0.8 mm
11:00 PM 50.1°F10.1°C 48.7°F9.3°C 95% 2.3 mph WSW3.7 kmh WSW 3.5 mph5.6 kmh 29.89 in1012.2 mb - 0.00 in0.0 mm 0.03 in0.8 mm
11:10 PM 50.0°F10.0°C 48.6°F9.2°C 95% 4.6 mph SW7.4 kmh SW 4.6 mph7.4 kmh 29.89 in1012.2 mb - 0.00 in0.0 mm 0.03 in0.8 mm
11:20 PM 50.0°F10.0°C 48.6°F9.2°C 95% 9.2 mph SW14.8 kmh SW 11.5 mph18.5 kmh 29.89 in1012.2 mb - 0.00 in0.0 mm 0.03 in0.8 mm
11:30 PM 49.9°F9.9°C 48.5°F9.2°C 95% 4.6 mph WSW7.4 kmh WSW 8.1 mph13.0 kmh 29.89 in1012.2 mb - 0.00 in0.0 mm 0.03 in0.8 mm
11:40 PM 49.9°F9.9°C 48.5°F9.2°C 95% 3.5 mph WSW5.6 kmh WSW 5.8 mph9.3 kmh 29.89 in1012.2 mb - 0.00 in0.0 mm 0.03 in0.8 mm
11:50 PM 50.0°F10.0°C 48.6°F9.2°C 95% 5.8 mph WSW9.3 kmh WSW 10.4 mph16.7 kmh 29.89 in1012.2 mb - 0.00 in0.0 mm 0.03 in0.8 mm